No particular awareness of the weather is required.    There are no Weather-warnings


Meteo18 Weather Cam more information Meteo18 Weather Cam


Thunder radar more information blitzortung!


Rain radar more information rain snow radar


Visit our other weather sites:

Template documentation
and downloads

And another site



Weather Underground History page Text

Daily Summary for January 11, 2017 Units:  Metric    English   Both
« Previous Day
Next Day »
Daily Weekly Monthly Yearly Custom
  High: Low: Average:
Temperature: 9.2 °C 3.4 °C 6 °C
Dew Point: 8.0 °C 3.0 °C 5.4 °C
Humidity: 99 % 85 % 96 %
Wind Speed: 30.6 km/h 0.0 km/h 7.4 km/h
Wind Gust: 30.6 km/h - -
Wind:- - WSW
Pressure: 1021.2 hPa 1016.1 hPa -
Precipitation: 0.5 mm    
Historical Graphs
 
 
Tabular Data for January 11, 2017
Time Temperature Dew Point Pressure Wind Wind Speed Wind Gust Humidity Rainfall Rate (Hourly)
00:02 3.8 °C 3.4 °C 1017.5 hPa WNW 6.4 km/h 6.4 km/h 97 % 0.0 mm
00:07 3.9 °C 3.5 °C 1017.5 hPa NW 3.2 km/h 8.0 km/h 97 % 0.0 mm
00:12 3.9 °C 3.5 °C 1017.5 hPa WNW 4.8 km/h 8.0 km/h 97 % 0.0 mm
00:17 3.9 °C 3.5 °C 1017.5 hPa WNW 1.6 km/h 8.0 km/h 97 % 0.0 mm
00:22 4.0 °C 3.6 °C 1017.5 hPa WNW 3.2 km/h 8.0 km/h 97 % 0.0 mm
00:32 4.0 °C 3.6 °C 1017.5 hPa WNW 4.8 km/h 8.0 km/h 97 % 0.0 mm
00:42 4.1 °C 3.7 °C 1017.5 hPa WNW 4.8 km/h 9.7 km/h 97 % 0.0 mm
00:47 4.1 °C 3.7 °C 1017.5 hPa WNW 8.0 km/h 9.7 km/h 97 % 0.0 mm
00:52 4.1 °C 3.7 °C 1017.8 hPa WNW 4.8 km/h 12.9 km/h 97 % 0.0 mm
00:57 4.1 °C 3.7 °C 1017.8 hPa WNW 4.8 km/h 12.9 km/h 97 % 0.0 mm
01:02 4.1 °C 3.7 °C 1017.5 hPa NW 6.4 km/h 12.9 km/h 97 % 0.0 mm
01:07 4.0 °C 3.4 °C 1017.2 hPa West 6.4 km/h 12.9 km/h 96 % 0.0 mm
01:12 4.0 °C 3.4 °C 1017.5 hPa West 4.8 km/h 12.9 km/h 96 % 0.0 mm
01:17 4.0 °C 3.6 °C 1017.2 hPa WNW 1.6 km/h 12.9 km/h 97 % 0.0 mm
01:22 4.0 °C 3.6 °C 1017.5 hPa WNW 4.8 km/h 12.9 km/h 97 % 0.0 mm
01:27 4.1 °C 3.7 °C 1017.2 hPa West 4.8 km/h 12.9 km/h 97 % 0.0 mm
01:32 4.2 °C 3.8 °C 1017.5 hPa NW 4.8 km/h 11.3 km/h 97 % 0.0 mm
01:37 4.2 °C 3.6 °C 1017.8 hPa West 6.4 km/h 11.3 km/h 96 % 0.0 mm
01:42 4.2 °C 3.6 °C 1017.8 hPa West 1.6 km/h 11.3 km/h 96 % 0.0 mm
01:47 4.2 °C 3.6 °C 1017.8 hPa Calm   9.7 km/h 96 % 0.0 mm
01:52 4.2 °C 3.6 °C 1017.8 hPa Calm   6.4 km/h 96 % 0.0 mm
01:57 3.9 °C 3.3 °C 1017.8 hPa Calm   6.4 km/h 96 % 0.0 mm
02:02 3.8 °C 3.2 °C 1017.8 hPa SE 1.6 km/h 1.6 km/h 96 % 0.0 mm
02:07 3.8 °C 3.2 °C 1017.8 hPa Calm   1.6 km/h 96 % 0.0 mm
02:12 3.8 °C 3.2 °C 1017.8 hPa Calm   1.6 km/h 96 % 0.0 mm
02:17 3.9 °C 3.5 °C 1017.5 hPa Calm   1.6 km/h 97 % 0.0 mm
02:22 3.9 °C 3.5 °C 1017.8 hPa Calm   1.6 km/h 97 % 0.0 mm
02:27 3.9 °C 3.5 °C 1017.8 hPa WNW 3.2 km/h 3.2 km/h 97 % 0.0 mm
02:32 3.9 °C 3.3 °C 1017.5 hPa WNW 1.6 km/h 3.2 km/h 96 % 0.0 mm
02:37 3.9 °C 3.5 °C 1017.8 hPa WNW 1.6 km/h 3.2 km/h 97 % 0.0 mm
02:42 4.0 °C 3.6 °C 1017.8 hPa WNW 1.6 km/h 6.4 km/h 97 % 0.0 mm
02:47 4.1 °C 3.5 °C 1018.2 hPa WSW 3.2 km/h 8.0 km/h 96 % 0.0 mm
02:52 4.1 °C 3.5 °C 1017.8 hPa WSW 1.6 km/h 8.0 km/h 96 % 0.0 mm
02:57 4.2 °C 3.6 °C 1017.8 hPa West 3.2 km/h 8.0 km/h 96 % 0.0 mm
03:02 4.2 °C 3.6 °C 1017.8 hPa Calm   8.0 km/h 96 % 0.0 mm
03:07 4.2 °C 3.6 °C 1017.8 hPa Calm   4.8 km/h 96 % 0.0 mm
03:12 4.2 °C 3.6 °C 1017.5 hPa WSW 3.2 km/h 4.8 km/h 96 % 0.0 mm
03:17 4.2 °C 3.6 °C 1017.5 hPa SW 3.2 km/h 3.2 km/h 96 % 0.0 mm
03:22 4.1 °C 3.4 °C 1017.5 hPa Calm   4.8 km/h 95 % 0.0 mm
03:27 3.8 °C 3.1 °C 1017.2 hPa Calm   4.8 km/h 95 % 0.0 mm
03:32 3.7 °C 3.0 °C 1017.5 hPa Calm   4.8 km/h 95 % 0.0 mm
03:37 3.6 °C 3.0 °C 1017.5 hPa Calm     96 % 0.0 mm
03:42 3.6 °C 3.0 °C 1017.5 hPa Calm     96 % 0.0 mm
03:47 3.6 °C 3.2 °C 1017.5 hPa SSW 1.6 km/h 1.6 km/h 97 % 0.0 mm
03:52 3.7 °C 3.3 °C 1017.8 hPa SW 1.6 km/h 3.2 km/h 97 % 0.0 mm
03:57 3.7 °C 3.3 °C 1017.8 hPa Calm   3.2 km/h 97 % 0.0 mm
04:02 3.8 °C 3.4 °C 1017.8 hPa WSW 3.2 km/h 3.2 km/h 97 % 0.0 mm
04:07 3.9 °C 3.5 °C 1017.8 hPa SW 1.6 km/h 4.8 km/h 97 % 0.0 mm
04:12 4.0 °C 3.6 °C 1017.8 hPa SW 1.6 km/h 4.8 km/h 97 % 0.0 mm
04:17 4.1 °C 3.7 °C 1017.8 hPa SW 1.6 km/h 6.4 km/h 97 % 0.0 mm
04:22 4.1 °C 3.7 °C 1017.5 hPa Calm   6.4 km/h 97 % 0.0 mm
04:27 4.0 °C 3.6 °C 1017.5 hPa Calm   6.4 km/h 97 % 0.0 mm
04:32 3.8 °C 3.2 °C 1017.2 hPa Calm   4.8 km/h 96 % 0.0 mm
04:37 3.7 °C 3.1 °C 1017.2 hPa SSE 3.2 km/h 4.8 km/h 96 % 0.0 mm
04:42 3.6 °C 3.0 °C 1017.2 hPa SSW 3.2 km/h 4.8 km/h 96 % 0.0 mm
04:47 3.6 °C 3.2 °C 1017.5 hPa SW 6.4 km/h 6.4 km/h 97 % 0.0 mm
04:52 3.6 °C 3.2 °C 1017.8 hPa SW 4.8 km/h 4.8 km/h 97 % 0.0 mm
04:57 3.6 °C 3.2 °C 1017.8 hPa SW 3.2 km/h 9.7 km/h 97 % 0.0 mm
05:02 3.6 °C 3.2 °C 1017.8 hPa SW 4.8 km/h 9.7 km/h 97 % 0.0 mm
05:07 3.7 °C 3.3 °C 1017.8 hPa West 6.4 km/h 6.4 km/h 97 % 0.0 mm
05:12 3.7 °C 3.3 °C 1017.5 hPa WSW 3.2 km/h 8.0 km/h 97 % 0.0 mm
05:17 3.7 °C 3.3 °C 1017.5 hPa West 3.2 km/h 11.3 km/h 97 % 0.0 mm
05:22 3.7 °C 3.3 °C 1017.8 hPa WSW 3.2 km/h 11.3 km/h 97 % 0.0 mm
05:27 3.7 °C 3.3 °C 1017.8 hPa WSW 3.2 km/h 11.3 km/h 97 % 0.0 mm
05:32 3.7 °C 3.3 °C 1017.8 hPa SW 1.6 km/h 11.3 km/h 97 % 0.0 mm
05:37 3.7 °C 3.3 °C 1017.5 hPa SW 4.8 km/h 8.0 km/h 97 % 0.0 mm
05:42 3.7 °C 3.3 °C 1017.5 hPa West 8.0 km/h 8.0 km/h 97 % 0.0 mm
05:47 3.6 °C 3.2 °C 1017.5 hPa WSW 8.0 km/h 9.7 km/h 97 % 0.0 mm
05:52 3.6 °C 3.2 °C 1017.2 hPa WSW 8.0 km/h 9.7 km/h 97 % 0.0 mm
05:57 3.6 °C 3.2 °C 1017.5 hPa West 6.4 km/h 12.9 km/h 97 % 0.0 mm
06:02 3.6 °C 3.2 °C 1017.2 hPa WSW 6.4 km/h 12.9 km/h 97 % 0.0 mm
06:07 3.6 °C 3.3 °C 1017.2 hPa WSW 4.8 km/h 17.7 km/h 98 % 0.0 mm
06:12 3.6 °C 3.3 °C 1017.2 hPa WSW 6.4 km/h 17.7 km/h 98 % 0.0 mm
06:17 3.6 °C 3.3 °C 1017.2 hPa SSW 4.8 km/h 17.7 km/h 98 % 0.0 mm
06:22 3.5 °C 3.2 °C 1017.2 hPa SW 3.2 km/h 17.7 km/h 98 % 0.0 mm
06:32 3.4 °C 3.1 °C 1017.2 hPa SW 4.8 km/h 16.1 km/h 98 % 0.0 mm
06:37 3.4 °C 3.1 °C 1017.2 hPa SSW 6.4 km/h 14.5 km/h 98 % 0.0 mm
06:42 3.4 °C 3.1 °C 1017.5 hPa SW 3.2 km/h 14.5 km/h 98 % 0.0 mm
06:47 3.4 °C 3.1 °C 1017.2 hPa South 4.8 km/h 14.5 km/h 98 % 0.0 mm
06:52 3.4 °C 3.1 °C 1017.5 hPa SW 8.0 km/h 14.5 km/h 98 % 0.0 mm
06:57 3.4 °C 3.1 °C 1017.5 hPa SW 3.2 km/h 11.3 km/h 98 % 0.0 mm
07:02 3.4 °C 3.1 °C 1017.5 hPa SW 4.8 km/h 11.3 km/h 98 % 0.0 mm
07:12 3.4 °C 3.1 °C 1017.8 hPa SW 9.7 km/h 12.9 km/h 98 % 0.0 mm
07:17 3.4 °C 3.1 °C 1017.8 hPa WSW 6.4 km/h 12.9 km/h 98 % 0.0 mm
07:22 3.5 °C 3.2 °C 1017.8 hPa SW 4.8 km/h 14.5 km/h 98 % 0.0 mm
07:27 3.5 °C 3.2 °C 1018.2 hPa SW 6.4 km/h 14.5 km/h 98 % 0.0 mm
07:32 3.5 °C 3.2 °C 1018.2 hPa WSW 8.0 km/h 14.5 km/h 98 % 0.0 mm
07:37 3.6 °C 3.3 °C 1018.2 hPa SSW 4.8 km/h 14.5 km/h 98 % 0.0 mm
07:42 3.6 °C 3.3 °C 1017.8 hPa SW 6.4 km/h 14.5 km/h 98 % 0.0 mm
07:47 3.6 °C 3.3 °C 1017.8 hPa SW 8.0 km/h 14.5 km/h 98 % 0.0 mm
07:52 3.6 °C 3.3 °C 1017.8 hPa SSW 11.3 km/h 14.5 km/h 98 % 0.0 mm
07:57 3.7 °C 3.4 °C 1017.8 hPa SW 6.4 km/h 16.1 km/h 98 % 0.0 mm
08:02 3.7 °C 3.4 °C 1017.8 hPa WSW 8.0 km/h 16.1 km/h 98 % 0.0 mm
08:07 3.7 °C 3.4 °C 1017.8 hPa SW 9.7 km/h 14.5 km/h 98 % 0.0 mm
08:12 3.7 °C 3.4 °C 1017.8 hPa SW 8.0 km/h 14.5 km/h 98 % 0.0 mm
08:17 3.8 °C 3.5 °C 1017.8 hPa SSW 4.8 km/h 17.7 km/h 98 % 0.0 mm
08:22 3.8 °C 3.5 °C 1017.8 hPa SW 11.3 km/h 17.7 km/h 98 % 0.0 mm
08:32 3.8 °C 3.5 °C 1017.8 hPa SW 11.3 km/h 19.3 km/h 98 % 0.0 mm
08:37 3.9 °C 3.6 °C 1017.8 hPa SW 9.7 km/h 17.7 km/h 98 % 0.0 mm
08:42 3.9 °C 3.6 °C 1017.8 hPa SW 9.7 km/h 17.7 km/h 98 % 0.0 mm
08:47 3.9 °C 3.6 °C 1017.8 hPa SSW 4.8 km/h 16.1 km/h 98 % 0.0 mm
08:52 4.0 °C 3.7 °C 1017.8 hPa SW 6.4 km/h 16.1 km/h 98 % 0.0 mm
08:57 4.0 °C 3.7 °C 1017.8 hPa SW 3.2 km/h 12.9 km/h 98 % 0.0 mm
09:02 4.1 °C 3.8 °C 1017.8 hPa South 9.7 km/h 12.9 km/h 98 % 0.0 mm
09:07 4.2 °C 3.9 °C 1017.8 hPa SW 16.1 km/h 16.1 km/h 98 % 0.0 mm
09:12 4.3 °C 4.0 °C 1017.8 hPa SSW 6.4 km/h 14.5 km/h 98 % 0.3 mm
09:17 4.3 °C 4.0 °C 1017.8 hPa SSW 11.3 km/h 17.7 km/h 98 % 0.3 mm
09:22 4.4 °C 4.1 °C 1017.8 hPa SSW 6.4 km/h 17.7 km/h 98 % 0.3 mm
09:32 4.4 °C 4.1 °C 1017.8 hPa SW 11.3 km/h 16.1 km/h 98 % 0.3 mm
09:37 4.4 °C 4.1 °C 1017.8 hPa South 9.7 km/h 14.5 km/h 98 % 0.3 mm
09:42 4.4 °C 4.1 °C 1017.5 hPa South 8.0 km/h 14.5 km/h 98 % 0.3 mm
09:47 4.5 °C 4.2 °C 1017.8 hPa SW 11.3 km/h 14.5 km/h 98 % 0.3 mm
09:52 4.6 °C 4.3 °C 1017.8 hPa SSW 11.3 km/h 14.5 km/h 98 % 0.3 mm
10:02 4.7 °C 4.4 °C 1017.8 hPa SW 6.4 km/h 17.7 km/h 98 % 0.3 mm
10:07 4.7 °C 4.4 °C 1017.8 hPa SW 20.9 km/h 20.9 km/h 98 % 0.3 mm
10:12 4.8 °C 4.5 °C 1017.8 hPa SSW 8.0 km/h 20.9 km/h 98 % 0.0 mm
10:17 4.8 °C 4.5 °C 1017.8 hPa SSW 6.4 km/h 20.9 km/h 98 % 0.0 mm
10:22 4.8 °C 4.5 °C 1017.8 hPa SSW 11.3 km/h 20.9 km/h 98 % 0.0 mm
10:27 4.8 °C 4.5 °C 1017.8 hPa SW 11.3 km/h 19.3 km/h 98 % 0.0 mm
10:32 4.8 °C 4.5 °C 1017.5 hPa SW 6.4 km/h 17.7 km/h 98 % 0.0 mm
10:37 4.9 °C 4.6 °C 1017.5 hPa SW 12.9 km/h 17.7 km/h 98 % 0.0 mm
10:42 5.1 °C 4.8 °C 1017.5 hPa SW 14.5 km/h 24.1 km/h 98 % 0.0 mm
10:47 5.1 °C 4.8 °C 1017.8 hPa SW 17.7 km/h 24.1 km/h 98 % 0.0 mm
10:52 5.2 °C 4.9 °C 1017.8 hPa SW 11.3 km/h 24.1 km/h 98 % 0.0 mm
10:57 5.2 °C 4.9 °C 1017.8 hPa WSW 16.1 km/h 24.1 km/h 98 % 0.0 mm
11:07 5.3 °C 5.0 °C 1017.8 hPa SW 9.7 km/h 20.9 km/h 98 % 0.0 mm
11:12 5.3 °C 5.0 °C 1017.8 hPa WSW 11.3 km/h 20.9 km/h 98 % 0.0 mm
11:22 5.4 °C 5.1 °C 1017.8 hPa SW 17.7 km/h 20.9 km/h 98 % 0.0 mm
11:27 5.6 °C 5.3 °C 1017.8 hPa SW 20.9 km/h 20.9 km/h 98 % 0.0 mm
11:32 5.7 °C 5.4 °C 1017.8 hPa NW 12.9 km/h 22.5 km/h 98 % 0.0 mm
11:37 5.8 °C 5.5 °C 1017.8 hPa West 17.7 km/h 24.1 km/h 98 % 0.0 mm
11:42 5.8 °C 5.7 °C 1017.8 hPa SW 20.9 km/h 24.1 km/h 99 % 0.0 mm
11:47 5.9 °C 5.6 °C 1017.8 hPa West 17.7 km/h 24.1 km/h 98 % 0.0 mm
11:52 5.9 °C 5.6 °C 1017.5 hPa SSW 14.5 km/h 30.6 km/h 98 % 0.0 mm
11:57 6.0 °C 5.9 °C 1017.5 hPa WSW 17.7 km/h 30.6 km/h 99 % 0.3 mm
12:02 6.0 °C 5.9 °C 1017.5 hPa SW 16.1 km/h 25.7 km/h 99 % 0.3 mm
12:07 6.1 °C 5.8 °C 1017.2 hPa SW 9.7 km/h 25.7 km/h 98 % 0.3 mm
12:12 6.1 °C 5.8 °C 1017.2 hPa WSW 8.0 km/h 25.7 km/h 98 % 0.3 mm
12:17 6.2 °C 6.1 °C 1017.2 hPa WSW 9.7 km/h 22.5 km/h 99 % 0.3 mm
12:22 6.3 °C 6.0 °C 1017.2 hPa SW 16.1 km/h 22.5 km/h 98 % 0.3 mm
12:27 6.3 °C 6.2 °C 1017.2 hPa SW 6.4 km/h 22.5 km/h 99 % 0.3 mm
12:32 6.4 °C 6.3 °C 1017.2 hPa WSW 9.7 km/h 22.5 km/h 99 % 0.3 mm
12:37 6.4 °C 6.3 °C 1016.8 hPa SSW 9.7 km/h 25.7 km/h 99 % 0.3 mm
12:42 6.5 °C 6.2 °C 1016.8 hPa WSW 20.9 km/h 25.7 km/h 98 % 0.3 mm
12:47 6.5 °C 6.2 °C 1016.8 hPa SW 9.7 km/h 27.4 km/h 98 % 0.3 mm
12:52 6.6 °C 6.3 °C 1016.8 hPa WSW 11.3 km/h 27.4 km/h 98 % 0.0 mm
12:57 6.6 °C 6.3 °C 1016.8 hPa SW 14.5 km/h 27.4 km/h 98 % 0.0 mm
13:02 6.7 °C 6.4 °C 1016.5 hPa WSW 20.9 km/h 27.4 km/h 98 % 0.0 mm
13:07 6.7 °C 6.4 °C 1016.5 hPa SW 20.9 km/h 30.6 km/h 98 % 0.0 mm
13:12 6.8 °C 6.5 °C 1016.5 hPa WSW 17.7 km/h 30.6 km/h 98 % 0.0 mm
13:17 6.8 °C 6.5 °C 1016.5 hPa SW 17.7 km/h 30.6 km/h 98 % 0.0 mm
13:22 6.8 °C 6.5 °C 1016.5 hPa SSW 12.9 km/h 25.7 km/h 98 % 0.0 mm
13:27 6.8 °C 6.5 °C 1016.5 hPa SW 30.6 km/h 30.6 km/h 98 % 0.0 mm
13:32 6.8 °C 6.5 °C 1016.5 hPa WSW 9.7 km/h 30.6 km/h 98 % 0.0 mm
13:37 6.9 °C 6.6 °C 1016.5 hPa SW 8.0 km/h 30.6 km/h 98 % 0.0 mm
13:42 6.9 °C 6.6 °C 1016.5 hPa SW 9.7 km/h 30.6 km/h 98 % 0.0 mm
13:47 6.9 °C 6.6 °C 1016.5 hPa SW 8.0 km/h 27.4 km/h 98 % 0.0 mm
13:52 7.0 °C 6.7 °C 1016.5 hPa SSW 11.3 km/h 22.5 km/h 98 % 0.0 mm
13:57 7.0 °C 6.7 °C 1016.1 hPa SW 9.7 km/h 22.5 km/h 98 % 0.0 mm
14:02 7.1 °C 6.8 °C 1016.1 hPa SW 9.7 km/h 22.5 km/h 98 % 0.0 mm
14:12 7.1 °C 6.8 °C 1016.1 hPa WSW 9.7 km/h 19.3 km/h 98 % 0.0 mm
14:17 7.2 °C 6.9 °C 1016.1 hPa WSW 6.4 km/h 20.9 km/h 98 % 0.0 mm
14:22 7.2 °C 6.9 °C 1016.1 hPa West 8.0 km/h 22.5 km/h 98 % 0.0 mm
14:27 7.3 °C 7.0 °C 1016.1 hPa West 9.7 km/h 22.5 km/h 98 % 0.0 mm
14:32 7.3 °C 7.0 °C 1016.1 hPa WNW 12.9 km/h 22.5 km/h 98 % 0.0 mm
14:37 7.3 °C 7.0 °C 1016.1 hPa West 14.5 km/h 22.5 km/h 98 % 0.0 mm
14:42 7.4 °C 7.1 °C 1016.1 hPa SW 11.3 km/h 25.7 km/h 98 % 0.0 mm
14:47 7.4 °C 7.1 °C 1016.1 hPa SW 9.7 km/h 25.7 km/h 98 % 0.0 mm
14:57 7.5 °C 7.2 °C 1016.1 hPa SW 16.1 km/h 24.1 km/h 98 % 0.0 mm
15:02 7.6 °C 7.3 °C 1016.1 hPa West 16.1 km/h 24.1 km/h 98 % 0.0 mm
15:07 7.6 °C 7.3 °C 1016.1 hPa SW 3.2 km/h 22.5 km/h 98 % 0.0 mm
15:12 7.7 °C 7.4 °C 1016.1 hPa SW 14.5 km/h 22.5 km/h 98 % 0.0 mm
15:17 7.7 °C 7.4 °C 1016.1 hPa SW 11.3 km/h 22.5 km/h 98 % 0.0 mm
15:22 7.7 °C 7.4 °C 1016.1 hPa WSW 9.7 km/h 19.3 km/h 98 % 0.0 mm
15:32 7.8 °C 7.5 °C 1016.1 hPa SW 4.8 km/h 19.3 km/h 98 % 0.0 mm
15:37 7.8 °C 7.5 °C 1016.1 hPa WSW 6.4 km/h 19.3 km/h 98 % 0.0 mm
15:42 7.8 °C 7.5 °C 1016.1 hPa WSW 9.7 km/h 19.3 km/h 98 % 0.0 mm
15:47 7.9 °C 7.6 °C 1016.5 hPa SW 12.9 km/h 19.3 km/h 98 % 0.0 mm
15:52 7.9 °C 7.6 °C 1016.5 hPa WSW 9.7 km/h 20.9 km/h 98 % 0.0 mm
15:57 7.9 °C 7.6 °C 1016.5 hPa SW 8.0 km/h 20.9 km/h 98 % 0.0 mm
16:02 7.9 °C 7.6 °C 1016.5 hPa West 3.2 km/h 19.3 km/h 98 % 0.0 mm
16:07 7.9 °C 7.6 °C 1016.5 hPa SW 6.4 km/h 19.3 km/h 98 % 0.0 mm
16:12 8.0 °C 7.7 °C 1016.5 hPa SSW 11.3 km/h 19.3 km/h 98 % 0.0 mm
16:17 8.0 °C 7.7 °C 1016.5 hPa WSW 8.0 km/h 19.3 km/h 98 % 0.0 mm
16:22 8.0 °C 7.7 °C 1016.1 hPa WSW 6.4 km/h 19.3 km/h 98 % 0.0 mm
16:27 8.1 °C 7.8 °C 1016.5 hPa SW 6.4 km/h 17.7 km/h 98 % 0.0 mm
16:32 8.1 °C 7.8 °C 1016.5 hPa WSW 11.3 km/h 19.3 km/h 98 % 0.0 mm
16:37 8.1 °C 7.8 °C 1016.5 hPa SW 6.4 km/h 19.3 km/h 98 % 0.0 mm
16:42 8.1 °C 7.8 °C 1016.5 hPa SW 11.3 km/h 19.3 km/h 98 % 0.0 mm
16:52 8.2 °C 7.9 °C 1016.5 hPa West 8.0 km/h 19.3 km/h 98 % 0.0 mm
16:57 8.2 °C 7.9 °C 1016.8 hPa West 6.4 km/h 20.9 km/h 98 % 0.0 mm
17:02 8.3 °C 7.9 °C 1016.8 hPa West 6.4 km/h 20.9 km/h 97 % 0.0 mm
17:07 8.3 °C 7.9 °C 1017.2 hPa West 12.9 km/h 20.9 km/h 97 % 0.0 mm
17:12 8.3 °C 7.9 °C 1017.2 hPa WSW 16.1 km/h 17.7 km/h 97 % 0.0 mm
17:17 8.3 °C 7.9 °C 1017.2 hPa West 11.3 km/h 17.7 km/h 97 % 0.0 mm
17:22 8.3 °C 7.9 °C 1017.2 hPa West 11.3 km/h 19.3 km/h 97 % 0.0 mm
17:27 8.4 °C 8.0 °C 1017.2 hPa West 4.8 km/h 19.3 km/h 97 % 0.0 mm
17:32 8.4 °C 8.0 °C 1017.2 hPa West 6.4 km/h 17.7 km/h 97 % 0.0 mm
17:37 8.4 °C 8.0 °C 1017.2 hPa WSW 11.3 km/h 17.7 km/h 97 % 0.0 mm
17:42 8.5 °C 7.9 °C 1017.2 hPa WSW 11.3 km/h 17.7 km/h 96 % 0.0 mm
17:47 8.6 °C 8.0 °C 1017.2 hPa WSW 9.7 km/h 16.1 km/h 96 % 0.0 mm
17:52 8.7 °C 7.9 °C 1017.2 hPa WSW 12.9 km/h 19.3 km/h 95 % 0.0 mm
18:02 8.8 °C 7.9 °C 1017.5 hPa WSW 9.7 km/h 19.3 km/h 94 % 0.0 mm
18:07 8.8 °C 7.9 °C 1017.5 hPa West 14.5 km/h 17.7 km/h 94 % 0.0 mm
18:12 8.9 °C 8.0 °C 1017.8 hPa West 8.0 km/h 17.7 km/h 94 % 0.0 mm
18:17 8.9 °C 8.0 °C 1017.8 hPa West 11.3 km/h 17.7 km/h 94 % 0.0 mm
18:22 8.9 °C 8.0 °C 1017.8 hPa WSW 6.4 km/h 16.1 km/h 94 % 0.0 mm
18:27 9.0 °C 7.9 °C 1017.8 hPa West 14.5 km/h 17.7 km/h 93 % 0.0 mm
18:32 9.1 °C 8.0 °C 1017.8 hPa WSW 11.3 km/h 17.7 km/h 93 % 0.0 mm
18:37 9.1 °C 8.0 °C 1017.8 hPa West 8.0 km/h 20.9 km/h 93 % 0.0 mm
18:42 9.1 °C 8.0 °C 1017.8 hPa West 8.0 km/h 20.9 km/h 93 % 0.0 mm
18:47 9.1 °C 7.9 °C 1017.8 hPa West 11.3 km/h 19.3 km/h 92 % 0.0 mm
18:52 9.2 °C 8.0 °C 1017.8 hPa WSW 9.7 km/h 16.1 km/h 92 % 0.0 mm
18:57 9.1 °C 7.9 °C 1017.8 hPa West 11.3 km/h 16.1 km/h 92 % 0.0 mm
19:02 9.1 °C 7.9 °C 1017.8 hPa WSW 8.0 km/h 16.1 km/h 92 % 0.0 mm
19:07 9.1 °C 7.9 °C 1018.2 hPa WSW 9.7 km/h 19.3 km/h 92 % 0.0 mm
19:12 9.1 °C 7.9 °C 1018.2 hPa SW 6.4 km/h 19.3 km/h 92 % 0.0 mm
19:17 8.9 °C 7.8 °C 1018.2 hPa SW 12.9 km/h 19.3 km/h 93 % 0.0 mm
19:22 8.9 °C 7.8 °C 1018.2 hPa West 6.4 km/h 14.5 km/h 93 % 0.0 mm
19:27 8.9 °C 7.8 °C 1018.2 hPa WSW 4.8 km/h 14.5 km/h 93 % 0.0 mm
19:32 8.9 °C 7.8 °C 1018.2 hPa SW 4.8 km/h 14.5 km/h 93 % 0.0 mm
19:37 8.8 °C 7.9 °C 1018.2 hPa WSW 1.6 km/h 9.7 km/h 94 % 0.0 mm
19:42 8.8 °C 7.7 °C 1018.2 hPa WSW 4.8 km/h 11.3 km/h 93 % 0.0 mm
19:47 8.8 °C 7.7 °C 1018.2 hPa SW 6.4 km/h 12.9 km/h 93 % 0.0 mm
19:52 8.8 °C 7.7 °C 1018.2 hPa Calm   12.9 km/h 93 % 0.0 mm
19:57 8.7 °C 7.6 °C 1018.2 hPa WSW 4.8 km/h 12.9 km/h 93 % 0.0 mm
20:02 8.7 °C 7.6 °C 1018.5 hPa SW 1.6 km/h 12.9 km/h 93 % 0.0 mm
20:07 8.7 °C 7.8 °C 1018.5 hPa SW 4.8 km/h 6.4 km/h 94 % 0.0 mm
20:12 8.7 °C 7.6 °C 1018.5 hPa SW 6.4 km/h 9.7 km/h 93 % 0.0 mm
20:22 8.6 °C 7.5 °C 1018.8 hPa SW 4.8 km/h 9.7 km/h 93 % 0.0 mm
20:32 8.5 °C 7.4 °C 1018.8 hPa SW 8.0 km/h 9.7 km/h 93 % 0.0 mm
20:42 8.5 °C 7.4 °C 1019.2 hPa SW 4.8 km/h 12.9 km/h 93 % 0.0 mm
20:47 8.5 °C 7.4 °C 1019.2 hPa WSW 4.8 km/h 12.9 km/h 93 % 0.0 mm
20:52 8.4 °C 7.3 °C 1019.2 hPa WSW 4.8 km/h 12.9 km/h 93 % 0.0 mm
20:57 8.4 °C 7.3 °C 1019.2 hPa SW 3.2 km/h 9.7 km/h 93 % 0.0 mm
21:02 8.4 °C 7.2 °C 1019.2 hPa SW 4.8 km/h 9.7 km/h 92 % 0.0 mm
21:12 8.5 °C 7.3 °C 1019.2 hPa WSW 4.8 km/h 11.3 km/h 92 % 0.0 mm
21:17 8.5 °C 7.3 °C 1019.2 hPa West 4.8 km/h 11.3 km/h 92 % 0.0 mm
21:27 8.4 °C 7.2 °C 1019.5 hPa WSW 4.8 km/h 8.0 km/h 92 % 0.0 mm
21:32 8.4 °C 7.0 °C 1019.5 hPa West 3.2 km/h 8.0 km/h 91 % 0.0 mm
21:42 8.4 °C 7.0 °C 1019.9 hPa West 1.6 km/h 8.0 km/h 91 % 0.0 mm
21:52 8.7 °C 6.8 °C 1019.9 hPa West 1.6 km/h 11.3 km/h 88 % 0.0 mm
21:57 8.7 °C 6.7 °C 1019.9 hPa WNW 1.6 km/h 12.9 km/h 87 % 0.0 mm
22:02 8.7 °C 6.7 °C 1019.9 hPa WNW 1.6 km/h 12.9 km/h 87 % 0.0 mm
22:07 8.6 °C 6.6 °C 1019.9 hPa West 3.2 km/h 8.0 km/h 87 % 0.0 mm
22:12 8.6 °C 6.7 °C 1019.9 hPa WNW 1.6 km/h 8.0 km/h 88 % 0.0 mm
22:17 8.5 °C 6.6 °C 1019.9 hPa WNW 4.8 km/h 11.3 km/h 88 % 0.0 mm
22:22 8.5 °C 6.8 °C 1019.9 hPa West 4.8 km/h 11.3 km/h 89 % 0.0 mm
22:27 8.5 °C 6.8 °C 1020.2 hPa WNW 8.0 km/h 11.3 km/h 89 % 0.0 mm
22:32 8.5 °C 6.6 °C 1019.9 hPa WNW 4.8 km/h 12.9 km/h 88 % 0.0 mm
22:37 8.5 °C 6.6 °C 1019.9 hPa WNW 9.7 km/h 16.1 km/h 88 % 0.0 mm
22:42 8.4 °C 6.5 °C 1020.2 hPa West 11.3 km/h 19.3 km/h 88 % 0.0 mm
22:47 8.4 °C 6.4 °C 1020.5 hPa WNW 9.7 km/h 19.3 km/h 87 % 0.0 mm
22:52 8.4 °C 6.4 °C 1020.5 hPa WNW 11.3 km/h 17.7 km/h 87 % 0.0 mm
23:02 8.4 °C 6.2 °C 1020.5 hPa WNW 8.0 km/h 17.7 km/h 86 % 0.0 mm
23:12 8.2 °C 6.0 °C 1020.9 hPa WNW 4.8 km/h 17.7 km/h 86 % 0.0 mm
23:17 8.1 °C 5.9 °C 1020.9 hPa WNW 8.0 km/h 16.1 km/h 86 % 0.0 mm
23:22 8.1 °C 5.9 °C 1020.9 hPa West 4.8 km/h 16.1 km/h 86 % 0.0 mm
23:27 8.1 °C 5.9 °C 1020.9 hPa WNW 17.7 km/h 24.1 km/h 86 % 0.0 mm
23:32 8.0 °C 5.6 °C 1020.9 hPa West 14.5 km/h 24.1 km/h 85 % 0.0 mm
23:37 8.0 °C 5.6 °C 1020.9 hPa West 3.2 km/h 24.1 km/h 85 % 0.0 mm
23:42 7.9 °C 5.7 °C 1020.9 hPa WNW 4.8 km/h 17.7 km/h 86 % 0.0 mm
23:47 7.9 °C 5.5 °C 1020.9 hPa West 1.6 km/h 16.1 km/h 85 % 0.0 mm
23:52 7.8 °C 5.4 °C 1020.9 hPa WNW 3.2 km/h 12.9 km/h 85 % 0.0 mm
23:57 7.8 °C 5.6 °C 1021.2 hPa West 1.6 km/h 12.9 km/h 86 % 0.0 mm
Meteo18
Compliments of Weather Underground - 4 mb

Script developed by  Jim McMurry - jmcmurry@mwt.net Adapted for the template by  Wim van der Kuil - Leuven-Template.eu

You find our weather info also at:

European Weather Network

Weather Underground

Equipment we use:

Weather-station
Davis Vue

Weather-program
Meteohub

Weather-server
Raspberry PI 2 B+

Provider
1 and 1

Davis Vue

Meteohub

Raspberry PI 2 B+

1 and 1